Terminal Aerodrome Forecast
Issued by NWS

Home | Current Version | Previous Version | Graphics & Text | Print | Product List | Glossary On
Versions: 1 2 3 4 5 6 7 8 9 10 11 12 13 14 15 16
228
FTUS43 KBIS 221014 AAB
TAFMOT
TAF AMD
KMOT 221014Z 2210/2306 26007KT P6SM SCT008 OVC011
      TEMPO 2210/2214 4SM BR OVC008
     FM221400 28010KT P6SM BKN010 OVC020
     FM230300 25009KT P6SM OVC010=

USA.gov is the U.S. government's official web portal to all federal, state and local government web resources and services.